sensor_id;sensor_type;location;lat;lon;timestamp;P1;durP1;ratioP1;P2;durP2;ratioP2
84638;SDS011;74869;51.924;5.712;2024-02-28T00:01:52;50.30;;;17.60;;
84638;SDS011;74869;51.924;5.712;2024-02-28T00:04:18;55.05;;;18.77;;
84638;SDS011;74869;51.924;5.712;2024-02-28T00:06:44;65.75;;;19.90;;
84638;SDS011;74869;51.924;5.712;2024-02-28T00:09:11;66.15;;;18.50;;
84638;SDS011;74869;51.924;5.712;2024-02-28T00:11:44;125.60;;;24.52;;
84638;SDS011;74869;51.924;5.712;2024-02-28T00:14:11;81.95;;;20.90;;
84638;SDS011;74869;51.924;5.712;2024-02-28T00:16:39;63.95;;;18.83;;
84638;SDS011;74869;51.924;5.712;2024-02-28T00:19:05;50.72;;;18.25;;
84638;SDS011;74869;51.924;5.712;2024-02-28T00:21:31;61.77;;;19.10;;
84638;SDS011;74869;51.924;5.712;2024-02-28T00:23:56;65.93;;;18.50;;
84638;SDS011;74869;51.924;5.712;2024-02-28T00:26:21;50.83;;;18.15;;
84638;SDS011;74869;51.924;5.712;2024-02-28T00:28:47;65.53;;;21.37;;
84638;SDS011;74869;51.924;5.712;2024-02-28T00:31:12;61.97;;;19.17;;
84638;SDS011;74869;51.924;5.712;2024-02-28T00:33:37;52.00;;;17.97;;
84638;SDS011;74869;51.924;5.712;2024-02-28T00:36:03;51.33;;;16.87;;
84638;SDS011;74869;51.924;5.712;2024-02-28T00:38:28;53.50;;;18.70;;
84638;SDS011;74869;51.924;5.712;2024-02-28T00:40:54;76.83;;;20.90;;
84638;SDS011;74869;51.924;5.712;2024-02-28T00:43:19;49.93;;;17.83;;
84638;SDS011;74869;51.924;5.712;2024-02-28T00:45:44;62.87;;;17.77;;
84638;SDS011;74869;51.924;5.712;2024-02-28T00:48:09;55.23;;;18.87;;
84638;SDS011;74869;51.924;5.712;2024-02-28T00:50:35;62.83;;;20.77;;
84638;SDS011;74869;51.924;5.712;2024-02-28T00:53:00;68.43;;;19.90;;
84638;SDS011;74869;51.924;5.712;2024-02-28T00:55:25;82.03;;;23.40;;
84638;SDS011;74869;51.924;5.712;2024-02-28T00:57:51;74.28;;;21.17;;
84638;SDS011;74869;51.924;5.712;2024-02-28T01:00:16;58.20;;;19.40;;
84638;SDS011;74869;51.924;5.712;2024-02-28T01:02:42;61.58;;;18.02;;
84638;SDS011;74869;51.924;5.712;2024-02-28T01:05:07;69.80;;;21.13;;
84638;SDS011;74869;51.924;5.712;2024-02-28T01:07:33;85.75;;;20.70;;
84638;SDS011;74869;51.924;5.712;2024-02-28T01:09:58;83.03;;;21.40;;
84638;SDS011;74869;51.924;5.712;2024-02-28T01:12:24;83.43;;;21.08;;
84638;SDS011;74869;51.924;5.712;2024-02-28T01:14:49;127.60;;;27.23;;
84638;SDS011;74869;51.924;5.712;2024-02-28T01:17:15;81.55;;;21.73;;
84638;SDS011;74869;51.924;5.712;2024-02-28T01:19:40;120.65;;;24.90;;
84638;SDS011;74869;51.924;5.712;2024-02-28T01:22:05;54.43;;;17.93;;
84638;SDS011;74869;51.924;5.712;2024-02-28T01:24:31;77.37;;;21.13;;
84638;SDS011;74869;51.924;5.712;2024-02-28T01:26:58;76.75;;;21.92;;
84638;SDS011;74869;51.924;5.712;2024-02-28T01:29:23;100.87;;;23.73;;
84638;SDS011;74869;51.924;5.712;2024-02-28T01:31:49;198.00;;;34.45;;
84638;SDS011;74869;51.924;5.712;2024-02-28T01:34:14;62.05;;;19.33;;
84638;SDS011;74869;51.924;5.712;2024-02-28T01:36:39;166.30;;;30.43;;
84638;SDS011;74869;51.924;5.712;2024-02-28T01:39:05;166.33;;;31.07;;
84638;SDS011;74869;51.924;5.712;2024-02-28T01:41:30;87.03;;;23.40;;
84638;SDS011;74869;51.924;5.712;2024-02-28T01:43:55;72.47;;;23.87;;
84638;SDS011;74869;51.924;5.712;2024-02-28T01:46:25;126.40;;;27.63;;
84638;SDS011;74869;51.924;5.712;2024-02-28T01:48:52;101.45;;;25.60;;
84638;SDS011;74869;51.924;5.712;2024-02-28T01:51:18;164.60;;;32.42;;
84638;SDS011;74869;51.924;5.712;2024-02-28T01:53:45;152.00;;;31.63;;
84638;SDS011;74869;51.924;5.712;2024-02-28T01:56:11;72.05;;;20.23;;
84638;SDS011;74869;51.924;5.712;2024-02-28T01:58:39;131.15;;;26.77;;
84638;SDS011;74869;51.924;5.712;2024-02-28T02:01:05;129.27;;;25.75;;
84638;SDS011;74869;51.924;5.712;2024-02-28T02:03:32;157.93;;;30.83;;
84638;SDS011;74869;51.924;5.712;2024-02-28T02:05:59;59.92;;;19.80;;
84638;SDS011;74869;51.924;5.712;2024-02-28T02:08:26;114.90;;;26.67;;
84638;SDS011;74869;51.924;5.712;2024-02-28T02:10:52;109.18;;;25.42;;
84638;SDS011;74869;51.924;5.712;2024-02-28T02:13:17;99.45;;;24.30;;
84638;SDS011;74869;51.924;5.712;2024-02-28T02:15:43;93.43;;;21.75;;
84638;SDS011;74869;51.924;5.712;2024-02-28T02:18:08;66.17;;;18.83;;
84638;SDS011;74869;51.924;5.712;2024-02-28T02:20:33;78.67;;;21.13;;
84638;SDS011;74869;51.924;5.712;2024-02-28T02:23:04;86.57;;;20.42;;
84638;SDS011;74869;51.924;5.712;2024-02-28T02:25:29;100.35;;;23.88;;
84638;SDS011;74869;51.924;5.712;2024-02-28T02:27:55;135.73;;;25.33;;
84638;SDS011;74869;51.924;5.712;2024-02-28T02:30:20;140.20;;;26.03;;
84638;SDS011;74869;51.924;5.712;2024-02-28T02:32:45;97.70;;;21.88;;
84638;SDS011;74869;51.924;5.712;2024-02-28T02:35:11;122.68;;;25.90;;
84638;SDS011;74869;51.924;5.712;2024-02-28T02:37:36;102.30;;;21.83;;
84638;SDS011;74869;51.924;5.712;2024-02-28T02:40:02;83.77;;;20.03;;
84638;SDS011;74869;51.924;5.712;2024-02-28T02:42:27;98.35;;;21.60;;
84638;SDS011;74869;51.924;5.712;2024-02-28T02:44:52;140.90;;;26.87;;
84638;SDS011;74869;51.924;5.712;2024-02-28T02:47:18;128.95;;;25.23;;
84638;SDS011;74869;51.924;5.712;2024-02-28T02:49:43;83.17;;;20.17;;
84638;SDS011;74869;51.924;5.712;2024-02-28T02:52:09;93.30;;;23.70;;
84638;SDS011;74869;51.924;5.712;2024-02-28T02:54:34;114.63;;;24.13;;
84638;SDS011;74869;51.924;5.712;2024-02-28T02:56:59;72.10;;;19.13;;
84638;SDS011;74869;51.924;5.712;2024-02-28T02:59:25;96.50;;;22.37;;
84638;SDS011;74869;51.924;5.712;2024-02-28T03:01:50;111.97;;;21.45;;
84638;SDS011;74869;51.924;5.712;2024-02-28T03:04:15;66.37;;;18.93;;
84638;SDS011;74869;51.924;5.712;2024-02-28T03:06:41;90.78;;;21.45;;
84638;SDS011;74869;51.924;5.712;2024-02-28T03:09:06;54.30;;;17.87;;
84638;SDS011;74869;51.924;5.712;2024-02-28T03:11:32;68.80;;;22.00;;
84638;SDS011;74869;51.924;5.712;2024-02-28T03:14:00;65.22;;;17.38;;
84638;SDS011;74869;51.924;5.712;2024-02-28T03:16:25;64.18;;;18.23;;
84638;SDS011;74869;51.924;5.712;2024-02-28T03:18:51;66.13;;;18.85;;
84638;SDS011;74869;51.924;5.712;2024-02-28T03:21:16;56.60;;;18.10;;
84638;SDS011;74869;51.924;5.712;2024-02-28T03:23:42;70.00;;;18.42;;
84638;SDS011;74869;51.924;5.712;2024-02-28T03:26:08;70.03;;;20.73;;
84638;SDS011;74869;51.924;5.712;2024-02-28T03:28:33;73.00;;;19.60;;
84638;SDS011;74869;51.924;5.712;2024-02-28T03:30:59;82.27;;;23.00;;
84638;SDS011;74869;51.924;5.712;2024-02-28T03:33:24;93.18;;;19.33;;
84638;SDS011;74869;51.924;5.712;2024-02-28T03:35:50;68.20;;;19.52;;
84638;SDS011;74869;51.924;5.712;2024-02-28T03:38:15;76.13;;;19.77;;
84638;SDS011;74869;51.924;5.712;2024-02-28T03:40:40;56.20;;;17.37;;
84638;SDS011;74869;51.924;5.712;2024-02-28T03:43:06;49.90;;;17.58;;
84638;SDS011;74869;51.924;5.712;2024-02-28T03:45:36;74.45;;;20.63;;
84638;SDS011;74869;51.924;5.712;2024-02-28T03:48:02;55.17;;;18.58;;
84638;SDS011;74869;51.924;5.712;2024-02-28T03:50:28;70.57;;;18.40;;
84638;SDS011;74869;51.924;5.712;2024-02-28T03:52:53;62.70;;;19.17;;
84638;SDS011;74869;51.924;5.712;2024-02-28T03:55:18;89.68;;;21.23;;
84638;SDS011;74869;51.924;5.712;2024-02-28T03:57:46;73.90;;;21.13;;
84638;SDS011;74869;51.924;5.712;2024-02-28T04:00:12;63.03;;;18.98;;
84638;SDS011;74869;51.924;5.712;2024-02-28T04:02:39;72.60;;;19.40;;
84638;SDS011;74869;51.924;5.712;2024-02-28T04:05:04;45.92;;;16.75;;
84638;SDS011;74869;51.924;5.712;2024-02-28T04:07:29;43.05;;;17.30;;
84638;SDS011;74869;51.924;5.712;2024-02-28T04:09:55;42.13;;;15.67;;
84638;SDS011;74869;51.924;5.712;2024-02-28T04:12:20;48.40;;;17.90;;
84638;SDS011;74869;51.924;5.712;2024-02-28T04:14:45;35.93;;;16.03;;
84638;SDS011;74869;51.924;5.712;2024-02-28T04:17:11;40.55;;;16.15;;
84638;SDS011;74869;51.924;5.712;2024-02-28T04:19:36;36.53;;;15.43;;
84638;SDS011;74869;51.924;5.712;2024-02-28T04:22:02;38.15;;;16.25;;
84638;SDS011;74869;51.924;5.712;2024-02-28T04:24:28;35.60;;;16.05;;
84638;SDS011;74869;51.924;5.712;2024-02-28T04:26:53;40.13;;;18.30;;
84638;SDS011;74869;51.924;5.712;2024-02-28T04:29:18;40.00;;;15.83;;
84638;SDS011;74869;51.924;5.712;2024-02-28T04:31:44;37.13;;;15.98;;
84638;SDS011;74869;51.924;5.712;2024-02-28T04:34:09;37.80;;;17.10;;
84638;SDS011;74869;51.924;5.712;2024-02-28T04:36:34;37.95;;;17.00;;
84638;SDS011;74869;51.924;5.712;2024-02-28T04:39:00;33.87;;;15.00;;
84638;SDS011;74869;51.924;5.712;2024-02-28T04:41:26;36.20;;;15.52;;
84638;SDS011;74869;51.924;5.712;2024-02-28T04:43:53;35.72;;;15.73;;
84638;SDS011;74869;51.924;5.712;2024-02-28T04:46:18;34.75;;;15.90;;
84638;SDS011;74869;51.924;5.712;2024-02-28T04:48:43;35.67;;;17.03;;
84638;SDS011;74869;51.924;5.712;2024-02-28T04:51:09;35.10;;;15.05;;
84638;SDS011;74869;51.924;5.712;2024-02-28T04:53:34;37.43;;;15.97;;
84638;SDS011;74869;51.924;5.712;2024-02-28T04:55:59;37.50;;;17.53;;
84638;SDS011;74869;51.924;5.712;2024-02-28T04:58:25;34.53;;;16.48;;
84638;SDS011;74869;51.924;5.712;2024-02-28T05:00:50;38.63;;;18.33;;
84638;SDS011;74869;51.924;5.712;2024-02-28T05:03:16;38.08;;;17.25;;
84638;SDS011;74869;51.924;5.712;2024-02-28T05:05:42;32.03;;;15.95;;
84638;SDS011;74869;51.924;5.712;2024-02-28T05:08:07;34.53;;;16.47;;
84638;SDS011;74869;51.924;5.712;2024-02-28T05:10:32;30.40;;;15.70;;
84638;SDS011;74869;51.924;5.712;2024-02-28T05:12:59;37.75;;;15.68;;
84638;SDS011;74869;51.924;5.712;2024-02-28T05:15:24;31.60;;;15.77;;
84638;SDS011;74869;51.924;5.712;2024-02-28T05:17:50;38.33;;;17.38;;
84638;SDS011;74869;51.924;5.712;2024-02-28T05:20:17;32.03;;;16.20;;
84638;SDS011;74869;51.924;5.712;2024-02-28T05:22:42;33.35;;;16.65;;
84638;SDS011;74869;51.924;5.712;2024-02-28T05:25:08;31.83;;;15.80;;
84638;SDS011;74869;51.924;5.712;2024-02-28T05:27:33;35.92;;;16.58;;
84638;SDS011;74869;51.924;5.712;2024-02-28T05:29:58;31.20;;;16.13;;
84638;SDS011;74869;51.924;5.712;2024-02-28T05:32:26;37.95;;;17.90;;
84638;SDS011;74869;51.924;5.712;2024-02-28T05:34:51;40.05;;;18.23;;
84638;SDS011;74869;51.924;5.712;2024-02-28T05:37:16;41.40;;;19.48;;
84638;SDS011;74869;51.924;5.712;2024-02-28T05:39:43;40.42;;;18.80;;
84638;SDS011;74869;51.924;5.712;2024-02-28T05:42:08;39.75;;;18.60;;
84638;SDS011;74869;51.924;5.712;2024-02-28T05:44:34;42.08;;;19.30;;
84638;SDS011;74869;51.924;5.712;2024-02-28T05:46:59;37.15;;;18.63;;
84638;SDS011;74869;51.924;5.712;2024-02-28T05:49:25;45.15;;;19.55;;
84638;SDS011;74869;51.924;5.712;2024-02-28T05:51:50;43.90;;;19.88;;
84638;SDS011;74869;51.924;5.712;2024-02-28T05:54:16;37.87;;;18.73;;
84638;SDS011;74869;51.924;5.712;2024-02-28T05:56:41;44.63;;;20.00;;
84638;SDS011;74869;51.924;5.712;2024-02-28T05:59:06;40.92;;;18.42;;
84638;SDS011;74869;51.924;5.712;2024-02-28T06:01:32;42.63;;;19.63;;
84638;SDS011;74869;51.924;5.712;2024-02-28T06:03:57;37.03;;;18.80;;
84638;SDS011;74869;51.924;5.712;2024-02-28T06:06:23;43.22;;;20.58;;
84638;SDS011;74869;51.924;5.712;2024-02-28T06:08:48;35.45;;;17.33;;
84638;SDS011;74869;51.924;5.712;2024-02-28T06:11:14;38.30;;;18.93;;
84638;SDS011;74869;51.924;5.712;2024-02-28T06:13:42;39.42;;;19.42;;
84638;SDS011;74869;51.924;5.712;2024-02-28T06:16:13;40.88;;;19.55;;
84638;SDS011;74869;51.924;5.712;2024-02-28T06:18:40;40.85;;;20.30;;
84638;SDS011;74869;51.924;5.712;2024-02-28T06:21:06;42.67;;;20.05;;
84638;SDS011;74869;51.924;5.712;2024-02-28T06:23:31;42.23;;;19.93;;
84638;SDS011;74869;51.924;5.712;2024-02-28T06:25:56;43.83;;;20.90;;
84638;SDS011;74869;51.924;5.712;2024-02-28T06:28:22;45.10;;;22.23;;
84638;SDS011;74869;51.924;5.712;2024-02-28T06:30:47;43.92;;;22.67;;
84638;SDS011;74869;51.924;5.712;2024-02-28T06:33:13;51.28;;;23.15;;
84638;SDS011;74869;51.924;5.712;2024-02-28T06:35:39;50.83;;;22.88;;
84638;SDS011;74869;51.924;5.712;2024-02-28T06:38:05;53.17;;;25.05;;
84638;SDS011;74869;51.924;5.712;2024-02-28T06:40:30;45.95;;;23.15;;
84638;SDS011;74869;51.924;5.712;2024-02-28T06:42:55;48.85;;;22.95;;
84638;SDS011;74869;51.924;5.712;2024-02-28T06:45:21;45.53;;;22.25;;
84638;SDS011;74869;51.924;5.712;2024-02-28T06:47:46;47.73;;;22.07;;
84638;SDS011;74869;51.924;5.712;2024-02-28T06:50:11;48.00;;;22.55;;
84638;SDS011;74869;51.924;5.712;2024-02-28T06:52:37;46.70;;;22.02;;
84638;SDS011;74869;51.924;5.712;2024-02-28T06:55:02;46.67;;;22.57;;
84638;SDS011;74869;51.924;5.712;2024-02-28T06:57:39;45.75;;;21.30;;
84638;SDS011;74869;51.924;5.712;2024-02-28T07:00:06;48.22;;;22.20;;
84638;SDS011;74869;51.924;5.712;2024-02-28T07:02:43;39.30;;;21.90;;
84638;SDS011;74869;51.924;5.712;2024-02-28T07:05:09;41.70;;;20.35;;
84638;SDS011;74869;51.924;5.712;2024-02-28T07:07:35;49.90;;;22.08;;
84638;SDS011;74869;51.924;5.712;2024-02-28T07:10:02;52.33;;;23.63;;
84638;SDS011;74869;51.924;5.712;2024-02-28T07:14:56;47.67;;;21.63;;
84638;SDS011;74869;51.924;5.712;2024-02-28T07:17:21;50.60;;;20.53;;
84638;SDS011;74869;51.924;5.712;2024-02-28T07:19:47;52.33;;;23.73;;
84638;SDS011;74869;51.924;5.712;2024-02-28T07:22:12;53.77;;;23.57;;
84638;SDS011;74869;51.924;5.712;2024-02-28T07:24:38;49.72;;;24.30;;
84638;SDS011;74869;51.924;5.712;2024-02-28T07:27:04;51.45;;;23.58;;
84638;SDS011;74869;51.924;5.712;2024-02-28T07:29:29;53.65;;;23.45;;
84638;SDS011;74869;51.924;5.712;2024-02-28T07:31:54;54.83;;;23.85;;
84638;SDS011;74869;51.924;5.712;2024-02-28T07:34:20;47.83;;;22.98;;
84638;SDS011;74869;51.924;5.712;2024-02-28T07:36:45;57.47;;;24.77;;
84638;SDS011;74869;51.924;5.712;2024-02-28T07:39:10;52.90;;;24.27;;
84638;SDS011;74869;51.924;5.712;2024-02-28T07:41:39;53.35;;;24.77;;
84638;SDS011;74869;51.924;5.712;2024-02-28T07:44:05;56.22;;;25.60;;
84638;SDS011;74869;51.924;5.712;2024-02-28T07:46:32;51.63;;;24.90;;
84638;SDS011;74869;51.924;5.712;2024-02-28T07:48:57;53.13;;;25.27;;
84638;SDS011;74869;51.924;5.712;2024-02-28T07:51:22;54.57;;;24.07;;
84638;SDS011;74869;51.924;5.712;2024-02-28T07:53:48;55.23;;;24.80;;
84638;SDS011;74869;51.924;5.712;2024-02-28T07:56:16;52.33;;;24.17;;
84638;SDS011;74869;51.924;5.712;2024-02-28T07:58:43;51.10;;;24.20;;
84638;SDS011;74869;51.924;5.712;2024-02-28T08:01:09;54.03;;;24.02;;
84638;SDS011;74869;51.924;5.712;2024-02-28T08:03:35;55.15;;;25.70;;
84638;SDS011;74869;51.924;5.712;2024-02-28T08:06:00;54.47;;;24.93;;
84638;SDS011;74869;51.924;5.712;2024-02-28T08:08:26;59.77;;;26.60;;
84638;SDS011;74869;51.924;5.712;2024-02-28T08:10:51;59.50;;;25.57;;
84638;SDS011;74869;51.924;5.712;2024-02-28T08:13:18;51.90;;;24.95;;
84638;SDS011;74869;51.924;5.712;2024-02-28T08:15:44;50.13;;;24.63;;
84638;SDS011;74869;51.924;5.712;2024-02-28T08:18:09;53.53;;;24.92;;
84638;SDS011;74869;51.924;5.712;2024-02-28T08:20:36;54.95;;;24.88;;
84638;SDS011;74869;51.924;5.712;2024-02-28T08:23:02;48.15;;;24.60;;
84638;SDS011;74869;51.924;5.712;2024-02-28T08:25:28;56.17;;;25.45;;
84638;SDS011;74869;51.924;5.712;2024-02-28T08:27:54;57.45;;;25.48;;
84638;SDS011;74869;51.924;5.712;2024-02-28T08:30:19;56.00;;;25.97;;
84638;SDS011;74869;51.924;5.712;2024-02-28T08:32:45;55.63;;;25.17;;
84638;SDS011;74869;51.924;5.712;2024-02-28T08:35:10;56.87;;;25.33;;
84638;SDS011;74869;51.924;5.712;2024-02-28T08:37:38;58.95;;;25.45;;
84638;SDS011;74869;51.924;5.712;2024-02-28T08:40:04;59.72;;;25.40;;
84638;SDS011;74869;51.924;5.712;2024-02-28T08:42:30;59.88;;;26.30;;
84638;SDS011;74869;51.924;5.712;2024-02-28T08:44:55;53.08;;;25.73;;
84638;SDS011;74869;51.924;5.712;2024-02-28T08:47:24;57.03;;;24.80;;
84638;SDS011;74869;51.924;5.712;2024-02-28T08:49:50;56.85;;;26.67;;
84638;SDS011;74869;51.924;5.712;2024-02-28T08:52:16;56.97;;;27.73;;
84638;SDS011;74869;51.924;5.712;2024-02-28T08:54:42;64.88;;;29.05;;
84638;SDS011;74869;51.924;5.712;2024-02-28T08:57:07;51.63;;;24.37;;
84638;SDS011;74869;51.924;5.712;2024-02-28T08:59:32;60.33;;;26.83;;
84638;SDS011;74869;51.924;5.712;2024-02-28T09:01:58;59.40;;;27.55;;
84638;SDS011;74869;51.924;5.712;2024-02-28T09:04:23;58.58;;;28.00;;
84638;SDS011;74869;51.924;5.712;2024-02-28T09:06:48;58.27;;;26.53;;
84638;SDS011;74869;51.924;5.712;2024-02-28T09:09:14;58.67;;;26.15;;
84638;SDS011;74869;51.924;5.712;2024-02-28T09:11:39;60.58;;;26.92;;
84638;SDS011;74869;51.924;5.712;2024-02-28T09:14:04;49.07;;;23.60;;
84638;SDS011;74869;51.924;5.712;2024-02-28T09:16:30;56.30;;;26.13;;
84638;SDS011;74869;51.924;5.712;2024-02-28T09:18:55;51.75;;;24.63;;
84638;SDS011;74869;51.924;5.712;2024-02-28T09:21:20;54.87;;;25.00;;
84638;SDS011;74869;51.924;5.712;2024-02-28T09:23:46;51.60;;;24.97;;
84638;SDS011;74869;51.924;5.712;2024-02-28T09:26:11;50.87;;;24.77;;
84638;SDS011;74869;51.924;5.712;2024-02-28T09:28:36;54.20;;;25.27;;
84638;SDS011;74869;51.924;5.712;2024-02-28T09:31:02;58.95;;;25.52;;
84638;SDS011;74869;51.924;5.712;2024-02-28T09:33:28;58.58;;;27.73;;
84638;SDS011;74869;51.924;5.712;2024-02-28T09:35:54;53.08;;;26.95;;
84638;SDS011;74869;51.924;5.712;2024-02-28T09:38:19;55.80;;;25.60;;
84638;SDS011;74869;51.924;5.712;2024-02-28T09:40:48;59.20;;;26.90;;
84638;SDS011;74869;51.924;5.712;2024-02-28T09:43:19;57.40;;;25.90;;
84638;SDS011;74869;51.924;5.712;2024-02-28T09:45:54;52.97;;;26.48;;
84638;SDS011;74869;51.924;5.712;2024-02-28T09:48:23;55.22;;;26.75;;
84638;SDS011;74869;51.924;5.712;2024-02-28T09:50:48;59.13;;;27.45;;
84638;SDS011;74869;51.924;5.712;2024-02-28T09:53:14;51.28;;;26.02;;
84638;SDS011;74869;51.924;5.712;2024-02-28T09:55:39;54.38;;;26.58;;
84638;SDS011;74869;51.924;5.712;2024-02-28T09:58:04;47.00;;;24.63;;
84638;SDS011;74869;51.924;5.712;2024-02-28T10:00:32;56.85;;;27.13;;
84638;SDS011;74869;51.924;5.712;2024-02-28T10:02:58;61.70;;;25.85;;
84638;SDS011;74869;51.924;5.712;2024-02-28T10:05:24;60.85;;;28.58;;
84638;SDS011;74869;51.924;5.712;2024-02-28T10:07:52;64.40;;;29.00;;
84638;SDS011;74869;51.924;5.712;2024-02-28T10:10:18;59.38;;;27.90;;
84638;SDS011;74869;51.924;5.712;2024-02-28T10:12:43;61.70;;;30.10;;
84638;SDS011;74869;51.924;5.712;2024-02-28T10:15:10;55.53;;;28.15;;
84638;SDS011;74869;51.924;5.712;2024-02-28T10:17:36;66.53;;;29.90;;
84638;SDS011;74869;51.924;5.712;2024-02-28T10:20:01;62.50;;;29.25;;
84638;SDS011;74869;51.924;5.712;2024-02-28T10:22:33;56.45;;;29.02;;
84638;SDS011;74869;51.924;5.712;2024-02-28T10:24:59;59.55;;;29.45;;
84638;SDS011;74869;51.924;5.712;2024-02-28T10:27:26;54.63;;;27.92;;
84638;SDS011;74869;51.924;5.712;2024-02-28T10:29:52;57.17;;;28.52;;
84638;SDS011;74869;51.924;5.712;2024-02-28T10:32:17;53.67;;;26.83;;
84638;SDS011;74869;51.924;5.712;2024-02-28T10:34:43;59.97;;;28.00;;
84638;SDS011;74869;51.924;5.712;2024-02-28T10:37:09;54.25;;;28.83;;
84638;SDS011;74869;51.924;5.712;2024-02-28T10:39:35;60.10;;;29.20;;
84638;SDS011;74869;51.924;5.712;2024-02-28T10:42:03;49.60;;;26.08;;
84638;SDS011;74869;51.924;5.712;2024-02-28T10:44:29;53.17;;;26.58;;
84638;SDS011;74869;51.924;5.712;2024-02-28T10:46:55;48.95;;;26.52;;
84638;SDS011;74869;51.924;5.712;2024-02-28T10:49:22;56.47;;;28.10;;
84638;SDS011;74869;51.924;5.712;2024-02-28T10:51:48;43.53;;;23.73;;
84638;SDS011;74869;51.924;5.712;2024-02-28T10:54:16;51.40;;;25.38;;
84638;SDS011;74869;51.924;5.712;2024-02-28T10:56:43;49.58;;;25.65;;
84638;SDS011;74869;51.924;5.712;2024-02-28T10:59:10;47.20;;;24.70;;
84638;SDS011;74869;51.924;5.712;2024-02-28T11:01:36;47.75;;;23.65;;
84638;SDS011;74869;51.924;5.712;2024-02-28T11:04:06;49.83;;;25.10;;
84638;SDS011;74869;51.924;5.712;2024-02-28T11:06:32;46.13;;;23.50;;
84638;SDS011;74869;51.924;5.712;2024-02-28T11:08:58;46.58;;;23.10;;
84638;SDS011;74869;51.924;5.712;2024-02-28T11:11:25;48.88;;;27.80;;
84638;SDS011;74869;51.924;5.712;2024-02-28T11:13:58;48.45;;;23.23;;
84638;SDS011;74869;51.924;5.712;2024-02-28T11:16:34;43.47;;;23.98;;
84638;SDS011;74869;51.924;5.712;2024-02-28T11:19:01;44.55;;;23.52;;
84638;SDS011;74869;51.924;5.712;2024-02-28T11:21:29;43.00;;;21.90;;
84638;SDS011;74869;51.924;5.712;2024-02-28T11:23:57;43.05;;;23.02;;
84638;SDS011;74869;51.924;5.712;2024-02-28T11:26:24;48.10;;;25.08;;
84638;SDS011;74869;51.924;5.712;2024-02-28T11:28:51;45.72;;;22.40;;
84638;SDS011;74869;51.924;5.712;2024-02-28T11:31:16;45.40;;;22.90;;
84638;SDS011;74869;51.924;5.712;2024-02-28T11:33:43;46.40;;;24.05;;
84638;SDS011;74869;51.924;5.712;2024-02-28T11:36:10;42.05;;;23.10;;
84638;SDS011;74869;51.924;5.712;2024-02-28T11:38:38;40.78;;;21.95;;
84638;SDS011;74869;51.924;5.712;2024-02-28T11:41:03;45.55;;;23.02;;
84638;SDS011;74869;51.924;5.712;2024-02-28T11:43:32;38.50;;;22.08;;
84638;SDS011;74869;51.924;5.712;2024-02-28T11:45:59;39.55;;;20.63;;
84638;SDS011;74869;51.924;5.712;2024-02-28T11:48:26;39.22;;;20.85;;
84638;SDS011;74869;51.924;5.712;2024-02-28T11:50:53;36.15;;;20.60;;
84638;SDS011;74869;51.924;5.712;2024-02-28T11:53:18;35.63;;;19.33;;
84638;SDS011;74869;51.924;5.712;2024-02-28T11:55:45;38.80;;;20.10;;
84638;SDS011;74869;51.924;5.712;2024-02-28T11:58:12;38.47;;;20.30;;
84638;SDS011;74869;51.924;5.712;2024-02-28T12:00:48;37.75;;;19.65;;
84638;SDS011;74869;51.924;5.712;2024-02-28T12:03:14;36.95;;;20.20;;
84638;SDS011;74869;51.924;5.712;2024-02-28T12:05:42;35.38;;;18.42;;
84638;SDS011;74869;51.924;5.712;2024-02-28T12:08:09;36.17;;;18.33;;
84638;SDS011;74869;51.924;5.712;2024-02-28T12:10:35;35.72;;;19.40;;
84638;SDS011;74869;51.924;5.712;2024-02-28T12:13:00;33.20;;;18.38;;
84638;SDS011;74869;51.924;5.712;2024-02-28T12:15:28;33.33;;;18.77;;
84638;SDS011;74869;51.924;5.712;2024-02-28T12:17:54;40.17;;;21.65;;
84638;SDS011;74869;51.924;5.712;2024-02-28T12:20:19;40.08;;;19.00;;
84638;SDS011;74869;51.924;5.712;2024-02-28T12:22:45;34.27;;;17.67;;
84638;SDS011;74869;51.924;5.712;2024-02-28T12:25:10;36.13;;;19.13;;
84638;SDS011;74869;51.924;5.712;2024-02-28T12:27:36;36.70;;;18.98;;
84638;SDS011;74869;51.924;5.712;2024-02-28T12:30:01;32.90;;;17.88;;
84638;SDS011;74869;51.924;5.712;2024-02-28T12:32:27;33.40;;;18.30;;
84638;SDS011;74869;51.924;5.712;2024-02-28T12:34:52;33.33;;;18.87;;
84638;SDS011;74869;51.924;5.712;2024-02-28T12:37:18;31.58;;;18.63;;
84638;SDS011;74869;51.924;5.712;2024-02-28T12:39:44;32.80;;;18.40;;
84638;SDS011;74869;51.924;5.712;2024-02-28T12:42:09;33.22;;;19.20;;
84638;SDS011;74869;51.924;5.712;2024-02-28T12:44:35;33.95;;;19.17;;
84638;SDS011;74869;51.924;5.712;2024-02-28T12:47:00;32.70;;;18.30;;
84638;SDS011;74869;51.924;5.712;2024-02-28T12:49:25;33.05;;;18.15;;
84638;SDS011;74869;51.924;5.712;2024-02-28T12:51:51;34.03;;;18.47;;
84638;SDS011;74869;51.924;5.712;2024-02-28T12:54:16;31.80;;;17.25;;
84638;SDS011;74869;51.924;5.712;2024-02-28T12:56:42;28.95;;;17.48;;
84638;SDS011;74869;51.924;5.712;2024-02-28T12:59:11;31.45;;;18.17;;
84638;SDS011;74869;51.924;5.712;2024-02-28T13:01:37;27.98;;;16.80;;
84638;SDS011;74869;51.924;5.712;2024-02-28T13:04:03;25.80;;;16.27;;
84638;SDS011;74869;51.924;5.712;2024-02-28T13:06:28;27.92;;;16.30;;
84638;SDS011;74869;51.924;5.712;2024-02-28T13:08:54;29.23;;;16.65;;
84638;SDS011;74869;51.924;5.712;2024-02-28T13:11:20;27.40;;;15.52;;
84638;SDS011;74869;51.924;5.712;2024-02-28T13:13:50;26.10;;;15.27;;
84638;SDS011;74869;51.924;5.712;2024-02-28T13:16:16;27.67;;;16.48;;
84638;SDS011;74869;51.924;5.712;2024-02-28T13:18:42;29.85;;;16.08;;
84638;SDS011;74869;51.924;5.712;2024-02-28T13:21:08;29.45;;;17.75;;
84638;SDS011;74869;51.924;5.712;2024-02-28T13:23:34;26.17;;;15.25;;
84638;SDS011;74869;51.924;5.712;2024-02-28T13:26:00;29.35;;;16.00;;
84638;SDS011;74869;51.924;5.712;2024-02-28T13:28:29;26.40;;;16.30;;
84638;SDS011;74869;51.924;5.712;2024-02-28T13:30:56;25.15;;;15.45;;
84638;SDS011;74869;51.924;5.712;2024-02-28T13:33:22;23.15;;;14.32;;
84638;SDS011;74869;51.924;5.712;2024-02-28T13:35:48;23.95;;;14.55;;
84638;SDS011;74869;51.924;5.712;2024-02-28T13:38:13;25.33;;;15.60;;
84638;SDS011;74869;51.924;5.712;2024-02-28T13:40:38;23.17;;;13.20;;
84638;SDS011;74869;51.924;5.712;2024-02-28T13:43:05;25.88;;;14.00;;
84638;SDS011;74869;51.924;5.712;2024-02-28T13:45:30;26.85;;;14.48;;
84638;SDS011;74869;51.924;5.712;2024-02-28T13:47:56;24.60;;;14.80;;
84638;SDS011;74869;51.924;5.712;2024-02-28T13:50:21;22.80;;;14.37;;
84638;SDS011;74869;51.924;5.712;2024-02-28T13:52:49;23.90;;;13.48;;
84638;SDS011;74869;51.924;5.712;2024-02-28T13:55:14;23.33;;;14.00;;
84638;SDS011;74869;51.924;5.712;2024-02-28T13:57:39;23.00;;;15.45;;
84638;SDS011;74869;51.924;5.712;2024-02-28T14:00:05;24.00;;;15.07;;
84638;SDS011;74869;51.924;5.712;2024-02-28T14:02:33;25.13;;;14.23;;
84638;SDS011;74869;51.924;5.712;2024-02-28T14:05:00;21.42;;;14.00;;
84638;SDS011;74869;51.924;5.712;2024-02-28T14:07:25;19.98;;;13.02;;
84638;SDS011;74869;51.924;5.712;2024-02-28T14:09:51;22.70;;;13.45;;
84638;SDS011;74869;51.924;5.712;2024-02-28T14:12:16;25.08;;;14.02;;
84638;SDS011;74869;51.924;5.712;2024-02-28T14:14:41;22.85;;;13.63;;
84638;SDS011;74869;51.924;5.712;2024-02-28T14:17:07;26.33;;;14.13;;